Time;durP1;ratioP1;P1;durP2;ratioP2;P2;SDS_P1;SDS_P2;PMS_P1;PMS_P2;Temp;Humidity;BMP_temperature;BMP_pressure;BME280_temperature;BME280_humidity;BME280_pressure;Samples;Min_cycle;Max_cycle;Signal;HPM_P1;HPM_P2
2022/12/13 00:00:18;;;;;;;55.15;33.28;;;;;;;;;;2097648;28;20044;-46
2022/12/13 00:01:20;;;;;;;56.83;31.07;;;;;;;;;;2097399;28;20044;-46
2022/12/13 00:02:21;;;;;;;60.08;35.28;;;;;;;;;;2097494;28;20634;-46
2022/12/13 00:03:22;;;;;;;55.13;26.17;;;;;;;;;;2097740;28;20048;-44
2022/12/13 00:04:23;;;;;;;57.30;34.10;;;;;;;;;;2097678;28;20045;-42
2022/12/13 00:05:25;;;;;;;54.65;32.67;;;;;;;;;;2097536;28;20044;-42
2022/12/13 00:06:26;;;;;;;50.28;26.08;;;;;;;;;;2097643;28;20040;-43
2022/12/13 00:07:28;;;;;;;58.92;34.10;;;;;;;;;;2097455;28;20048;-42
2022/12/13 00:08:28;;;;;;;50.22;25.83;;;;;;;;;;2097578;28;20041;-43
2022/12/13 00:09:30;;;;;;;54.53;33.67;;;;;;;;;;2097606;28;20072;-43
2022/12/13 00:10:31;;;;;;;57.25;32.03;;;;;;;;;;2097512;28;20055;-42
2022/12/13 00:11:33;;;;;;;54.93;33.00;;;;;;;;;;2097133;28;20049;-42
2022/12/13 00:12:34;;;;;;;57.38;29.05;;;;;;;;;;2097302;28;20051;-42
2022/12/13 00:13:35;;;;;;;55.58;32.97;;;;;;;;;;2097443;28;20047;-43
2022/12/13 00:14:36;;;;;;;55.58;26.38;;;;;;;;;;2097510;28;20048;-43
2022/12/13 00:15:37;;;;;;;57.35;33.00;;;;;;;;;;2097474;28;20060;-43
2022/12/13 00:16:38;;;;;;;56.50;30.10;;;;;;;;;;2097403;28;20044;-43
2022/12/13 00:17:39;;;;;;;54.92;29.35;;;;;;;;;;2097299;28;20048;-42
2022/12/13 00:18:40;;;;;;;58.58;33.20;;;;;;;;;;2097423;28;20048;-42
2022/12/13 00:19:41;;;;;;;52.58;29.27;;;;;;;;;;2097532;28;20048;-42
2022/12/13 00:20:42;;;;;;;48.78;29.00;;;;;;;;;;2097612;28;20476;-42
2022/12/13 00:21:43;;;;;;;50.17;28.20;;;;;;;;;;2097253;28;20049;-43
2022/12/13 00:22:45;;;;;;;52.47;30.43;;;;;;;;;;2097376;28;20404;-43
2022/12/13 00:23:45;;;;;;;53.47;25.98;;;;;;;;;;2097516;28;20796;-42
2022/12/13 00:24:47;;;;;;;55.73;31.47;;;;;;;;;;2097394;28;20117;-42
2022/12/13 00:25:48;;;;;;;52.67;25.90;;;;;;;;;;2097440;28;20055;-43
2022/12/13 00:26:49;;;;;;;69.10;36.75;;;;;;;;;;2097428;28;20051;-43
2022/12/13 00:27:50;;;;;;;77.35;38.30;;;;;;;;;;2097424;28;20048;-42
2022/12/13 00:28:52;;;;;;;74.97;35.33;;;;;;;;;;2097591;28;20056;-42
2022/12/13 00:29:53;;;;;;;80.57;40.58;;;;;;;;;;2097624;28;20052;-42
2022/12/13 00:30:56;;;;;;;91.40;38.87;;;;;;;;;;2097436;28;20469;-42
2022/12/13 00:31:56;;;;;;;90.70;42.33;;;;;;;;;;2097367;28;20049;-43
2022/12/13 00:33:01;;;;;;;88.30;40.00;;;;;;;;;;2097303;28;20084;-41
2022/12/13 00:34:02;;;;;;;84.43;40.90;;;;;;;;;;2097413;28;20048;-42
2022/12/13 00:35:04;;;;;;;79.38;34.88;;;;;;;;;;2097410;28;20053;-42
2022/12/13 00:36:06;;;;;;;80.75;39.63;;;;;;;;;;2105885;28;20059;-42
2022/12/13 00:37:07;;;;;;;;;;;;;;;;;;2106060;28;20055;-42
2022/12/13 00:38:08;;;;;;;68.18;28.95;;;;;;;;;;2105664;28;19959;-42
2022/12/13 00:39:12;;;;;;;78.13;39.40;;;;;;;;;;2105662;28;20073;-42
2022/12/13 00:40:15;;;;;;;67.45;33.55;;;;;;;;;;2105815;28;20055;-42
2022/12/13 00:41:17;;;;;;;68.88;35.25;;;;;;;;;;2105593;28;20451;-42
2022/12/13 00:42:18;;;;;;;59.10;26.55;;;;;;;;;;2105721;28;20108;-42
2022/12/13 00:43:19;;;;;;;60.63;32.58;;;;;;;;;;2105672;28;20040;-42
2022/12/13 00:44:21;;;;;;;53.90;28.80;;;;;;;;;;2105800;28;20044;-42
2022/12/13 00:45:21;;;;;;;64.43;34.67;;;;;;;;;;2105679;28;20056;-42
2022/12/13 00:46:23;;;;;;;51.80;26.73;;;;;;;;;;2104606;28;20044;-45
2022/12/13 00:47:24;;;;;;;59.60;31.73;;;;;;;;;;2097361;28;20084;-46
2022/12/13 00:48:25;;;;;;;50.85;27.10;;;;;;;;;;2097298;28;20036;-45
2022/12/13 00:49:26;;;;;;;52.85;30.77;;;;;;;;;;2097340;28;20125;-46
2022/12/13 00:50:27;;;;;;;57.47;25.23;;;;;;;;;;2097399;28;20477;-42
2022/12/13 00:51:29;;;;;;;57.00;33.03;;;;;;;;;;2097686;28;20097;-46
2022/12/13 00:52:30;;;;;;;53.00;28.63;;;;;;;;;;2097228;28;20473;-45
2022/12/13 00:53:31;;;;;;;52.43;29.80;;;;;;;;;;2097417;28;20076;-46
2022/12/13 00:54:32;;;;;;;57.33;26.90;;;;;;;;;;2097321;28;20097;-45
2022/12/13 00:55:38;;;;;;;55.38;30.73;;;;;;;;;;2097387;28;20082;-46
2022/12/13 00:56:40;;;;;;;56.88;26.92;;;;;;;;;;2097157;28;20041;-45
2022/12/13 00:57:41;;;;;;;61.55;33.20;;;;;;;;;;2097088;28;20044;-45
2022/12/13 00:58:42;;;;;;;65.43;31.10;;;;;;;;;;2097127;28;20044;-45
2022/12/13 00:59:49;;;;;;;64.13;28.98;;;;;;;;;;2097235;28;20055;-45
2022/12/13 01:00:50;;;;;;;62.13;34.60;;;;;;;;;;2097322;28;20045;-46
2022/12/13 01:01:52;;;;;;;65.07;31.67;;;;;;;;;;2097082;28;20044;-46
2022/12/13 01:02:53;;;;;;;67.75;35.90;;;;;;;;;;2097481;28;20056;-45
2022/12/13 01:03:55;;;;;;;60.80;29.27;;;;;;;;;;2097252;28;20091;-45
2022/12/13 01:04:56;;;;;;;57.35;30.13;;;;;;;;;;2097253;28;20048;-45
2022/12/13 01:05:57;;;;;;;55.97;30.17;;;;;;;;;;2097178;28;20048;-45
2022/12/13 01:07:16;;;;;;;49.50;26.90;;;;;;;;;;2097205;28;20127;-46
2022/12/13 01:08:17;;;;;;;60.33;33.70;;;;;;;;;;2097205;28;20042;-45
2022/12/13 01:09:19;;;;;;;60.90;26.40;;;;;;;;;;2097314;28;20131;-46
2022/12/13 01:10:19;;;;;;;;;;;;;;;;;;2097674;28;20049;-45
2022/12/13 01:11:21;;;;;;;51.15;25.77;;;;;;;;;;2097251;28;19921;-46
2022/12/13 01:12:22;;;;;;;60.42;32.20;;;;;;;;;;2097080;28;20590;-46
2022/12/13 01:13:23;;;;;;;58.58;32.55;;;;;;;;;;2097170;28;20041;-46
2022/12/13 01:14:25;;;;;;;57.50;26.48;;;;;;;;;;2097254;28;20056;-47
2022/12/13 01:15:26;;;;;;;55.67;26.75;;;;;;;;;;2097153;28;20048;-46
2022/12/13 01:16:27;;;;;;;59.33;33.72;;;;;;;;;;2097245;28;20473;-46
2022/12/13 01:17:29;;;;;;;59.83;33.10;;;;;;;;;;2097191;28;20075;-42
2022/12/13 01:18:30;;;;;;;;;;;;;;;;;;2097704;28;20094;-42
2022/12/13 01:19:32;;;;;;;49.83;25.63;;;;;;;;;;2097118;28;20014;-43
2022/12/13 01:20:32;;;;;;;63.45;33.65;;;;;;;;;;2097018;28;20044;-43
2022/12/13 01:21:34;;;;;;;60.43;26.60;;;;;;;;;;2097075;28;20131;-43
2022/12/13 01:22:35;;;;;;;66.35;35.78;;;;;;;;;;2097074;28;20485;-42
2022/12/13 01:23:36;;;;;;;67.22;33.75;;;;;;;;;;2097444;28;20052;-43
2022/12/13 01:24:38;;;;;;;65.40;35.05;;;;;;;;;;2098691;28;20543;-42
2022/12/13 01:25:38;;;;;;;60.83;29.77;;;;;;;;;;2098702;28;20229;-43
2022/12/13 01:26:40;;;;;;;67.22;35.22;;;;;;;;;;2098303;28;20052;-43
2022/12/13 01:27:41;;;;;;;;;;;;;;;;;;2099096;28;20045;-41
2022/12/13 01:28:43;;;;;;;56.33;28.88;;;;;;;;;;2098527;28;20411;-42
2022/12/13 01:29:44;;;;;;;64.32;31.10;;;;;;;;;;2098563;28;20052;-42
2022/12/13 01:30:52;;;;;;;59.30;33.65;;;;;;;;;;2098584;28;20052;-42
2022/12/13 01:31:53;;;;;;;63.47;31.38;;;;;;;;;;2103297;28;20044;-42
2022/12/13 01:32:54;;;;;;;63.22;34.22;;;;;;;;;;2107132;28;20052;-42
2022/12/13 01:33:56;;;;;;;54.38;29.17;;;;;;;;;;2106900;28;20040;-42
2022/12/13 01:34:57;;;;;;;52.30;30.92;;;;;;;;;;2106934;28;20063;-42
2022/12/13 01:35:59;;;;;;;53.40;31.37;;;;;;;;;;2106817;28;20058;-42
2022/12/13 01:37:01;;;;;;;52.50;27.77;;;;;;;;;;2106820;28;20059;-42
2022/12/13 01:38:02;;;;;;;52.88;31.38;;;;;;;;;;2106791;28;20048;-42
2022/12/13 01:39:18;;;;;;;52.95;28.58;;;;;;;;;;2106845;28;20575;-42
2022/12/13 01:40:19;;;;;;;52.67;31.58;;;;;;;;;;2106790;28;20485;-42
2022/12/13 01:41:27;;;;;;;56.10;29.23;;;;;;;;;;2106784;28;20085;-42
2022/12/13 01:42:29;;;;;;;67.88;39.53;;;;;;;;;;2106820;28;20036;-42
2022/12/13 01:43:45;;;;;;;53.45;27.40;;;;;;;;;;2106793;28;20040;-42
2022/12/13 01:45:01;;;;;;;50.40;25.90;;;;;;;;;;2106644;28;20048;-42
2022/12/13 01:46:02;;;;;;;55.13;32.72;;;;;;;;;;2106928;28;20040;-42
2022/12/13 01:47:03;;;;;;;59.22;32.70;;;;;;;;;;2099871;28;20470;-42
2022/12/13 01:48:06;;;;;;;55.97;26.52;;;;;;;;;;2098475;28;20052;-42
2022/12/13 01:49:09;;;;;;;58.38;34.42;;;;;;;;;;2098393;28;20048;-42
2022/12/13 01:50:22;;;;;;;56.78;29.48;;;;;;;;;;2098324;28;20083;-42
2022/12/13 01:51:25;;;;;;;56.40;27.38;;;;;;;;;;2098397;28;20049;-42
2022/12/13 01:52:27;;;;;;;59.85;33.35;;;;;;;;;;2098291;28;20055;-42
2022/12/13 01:53:28;;;;;;;;;;;;;;;;;;2098786;28;20040;-42
2022/12/13 01:54:31;;;;;;;51.75;28.08;;;;;;;;;;2098518;28;19926;-42
2022/12/13 01:55:36;;;;;;;54.00;29.75;;;;;;;;;;2098514;28;20051;-42
2022/12/13 01:56:43;;;;;;;58.80;32.88;;;;;;;;;;2098261;28;20120;-42
2022/12/13 01:57:48;;;;;;;53.13;28.33;;;;;;;;;;2098437;28;20416;-45
2022/12/13 01:58:51;;;;;;;59.45;33.70;;;;;;;;;;2098391;28;20048;-45
2022/12/13 01:59:52;;;;;;;59.28;32.80;;;;;;;;;;2098245;28;20056;-46
2022/12/13 02:00:54;;;;;;;62.80;35.17;;;;;;;;;;2098418;28;20050;-46
2022/12/13 02:01:55;;;;;;;64.53;34.65;;;;;;;;;;2098348;28;20128;-45
2022/12/13 02:03:01;;;;;;;58.80;30.05;;;;;;;;;;2098179;28;20048;-46
2022/12/13 02:04:02;;;;;;;53.63;29.33;;;;;;;;;;2098319;28;20448;-46
2022/12/13 02:05:06;;;;;;;59.90;35.30;;;;;;;;;;2098389;28;20044;-46
2022/12/13 02:06:09;;;;;;;52.60;27.92;;;;;;;;;;2098208;28;20052;-46
2022/12/13 02:07:12;;;;;;;57.65;33.38;;;;;;;;;;2098189;28;20044;-45
2022/12/13 02:08:14;;;;;;;51.92;26.70;;;;;;;;;;2098429;28;20049;-46
2022/12/13 02:09:15;;;;;;;60.88;35.35;;;;;;;;;;2098168;28;20105;-47
2022/12/13 02:10:16;;;;;;;62.72;32.25;;;;;;;;;;2098393;28;20099;-46
2022/12/13 02:11:17;;;;;;;63.47;33.88;;;;;;;;;;2098425;28;20044;-45
2022/12/13 02:12:18;;;;;;;58.00;28.60;;;;;;;;;;2098310;28;20280;-46
2022/12/13 02:13:20;;;;;;;61.40;35.40;;;;;;;;;;2098262;28;20075;-45
2022/12/13 02:14:21;;;;;;;;;;;;;;;;;;2098707;28;20037;-46
2022/12/13 02:15:22;;;;;;;56.60;29.70;;;;;;;;;;2098304;28;19925;-45
2022/12/13 02:16:29;;;;;;;51.70;26.63;;;;;;;;;;2098214;28;20422;-45
2022/12/13 02:17:37;;;;;;;63.83;35.90;;;;;;;;;;2098074;28;20489;-46
2022/12/13 02:18:54;;;;;;;58.05;27.83;;;;;;;;;;2098186;28;20076;-45
2022/12/13 02:20:16;;;;;;;62.80;34.30;;;;;;;;;;2098360;28;20057;-45
2022/12/13 02:21:26;;;;;;;53.67;28.88;;;;;;;;;;2098305;28;20127;-45
2022/12/13 02:22:36;;;;;;;59.33;34.30;;;;;;;;;;2098181;28;20044;-48
2022/12/13 02:23:55;;;;;;;59.97;30.98;;;;;;;;;;2098189;28;20048;-45
2022/12/13 02:25:02;;;;;;;57.40;30.50;;;;;;;;;;2098042;28;20056;-46
2022/12/13 02:26:15;;;;;;;61.00;33.88;;;;;;;;;;2098169;28;20386;-46
2022/12/13 02:27:25;;;;;;;57.00;29.25;;;;;;;;;;2098006;28;20045;-46
2022/12/13 02:28:38;;;;;;;67.80;34.25;;;;;;;;;;2106700;28;20051;-41
2022/12/13 02:30:06;;;;;;;66.00;36.60;;;;;;;;;;2106484;28;20047;-41
2022/12/13 02:31:09;;;;;;;61.85;29.88;;;;;;;;;;2106613;28;20048;-41
2022/12/13 02:32:14;;;;;;;66.03;35.35;;;;;;;;;;2106367;28;20059;-42
2022/12/13 02:33:20;;;;;;;64.38;38.45;;;;;;;;;;2106557;28;20407;-42
2022/12/13 02:34:24;;;;;;;63.20;36.40;;;;;;;;;;2106314;28;20044;-41
2022/12/13 02:35:27;;;;;;;59.90;33.30;;;;;;;;;;2106395;28;20048;-42
2022/12/13 02:36:30;;;;;;;69.80;38.30;;;;;;;;;;2106319;28;20037;-42
2022/12/13 02:37:45;;;;;;;61.58;31.80;;;;;;;;;;2106307;28;20468;-41
2022/12/13 02:38:51;;;;;;;64.30;36.35;;;;;;;;;;2106481;28;20048;-42
2022/12/13 02:39:56;;;;;;;58.35;29.00;;;;;;;;;;2106561;28;20098;-41
2022/12/13 02:40:59;;;;;;;60.70;34.58;;;;;;;;;;2106382;28;20055;-42
2022/12/13 02:42:04;;;;;;;60.17;28.58;;;;;;;;;;2106265;28;20373;-42
2022/12/13 02:43:08;;;;;;;67.30;37.72;;;;;;;;;;2106339;28;20408;-42
2022/12/13 02:44:11;;;;;;;60.70;32.95;;;;;;;;;;2106589;28;20052;-41
2022/12/13 02:45:27;;;;;;;58.47;33.35;;;;;;;;;;2106320;28;20044;-42
2022/12/13 02:46:31;;;;;;;61.65;33.78;;;;;;;;;;2104575;28;20089;-42
2022/12/13 02:47:33;;;;;;;64.25;36.00;;;;;;;;;;2097838;28;20475;-42
2022/12/13 02:48:35;;;;;;;58.78;32.42;;;;;;;;;;2097989;28;20044;-42
2022/12/13 02:49:39;;;;;;;69.15;37.60;;;;;;;;;;2098024;28;20128;-41
2022/12/13 02:50:40;;;;;;;57.97;28.83;;;;;;;;;;2098080;28;20045;-42
2022/12/13 02:51:42;;;;;;;64.43;34.90;;;;;;;;;;2097767;28;20435;-41
2022/12/13 02:52:45;;;;;;;61.20;34.03;;;;;;;;;;2098111;28;20045;-42
2022/12/13 02:53:46;;;;;;;60.20;27.52;;;;;;;;;;2098030;28;20044;-41
2022/12/13 02:54:47;;;;;;;64.68;35.88;;;;;;;;;;2098132;28;20053;-41
2022/12/13 02:55:49;;;;;;;55.55;27.45;;;;;;;;;;2097919;28;20084;-42
2022/12/13 02:56:53;;;;;;;59.45;33.95;;;;;;;;;;2097852;28;20053;-42
2022/12/13 02:57:54;;;;;;;54.88;26.85;;;;;;;;;;2097954;28;20048;-41
2022/12/13 02:58:55;;;;;;;60.20;35.00;;;;;;;;;;2098143;28;20052;-42
2022/12/13 02:59:57;;;;;;;56.22;32.10;;;;;;;;;;2098391;28;20390;-42
2022/12/13 03:00:58;;;;;;;;;;;;;;;;;;2106612;28;20404;-42
2022/12/13 03:02:05;;;;;;;60.80;34.45;;;;;;;;;;2106375;28;19955;-46
2022/12/13 03:03:17;;;;;;;61.60;29.67;;;;;;;;;;2106360;28;20540;-42
2022/12/13 03:04:23;;;;;;;63.88;32.38;;;;;;;;;;2105781;28;20295;-42
2022/12/13 03:06:56;;;;;;;65.18;31.85;;;;;;;;;;2105481;28;20044;-41
2022/12/13 03:08:03;;;;;;;67.97;35.97;;;;;;;;;;2106501;28;20055;-42
2022/12/13 03:09:11;;;;;;;64.05;35.33;;;;;;;;;;2106478;28;20075;-42
2022/12/13 03:10:15;;;;;;;64.57;34.97;;;;;;;;;;2105798;28;20051;-42
2022/12/13 03:11:17;;;;;;;58.33;29.42;;;;;;;;;;2105987;28;20048;-45
2022/12/13 03:13:44;;;;;;;64.13;28.67;;;;;;;;;;2106349;28;19931;-46
2022/12/13 03:14:48;;;;;;;65.85;33.17;;;;;;;;;;2106226;28;20441;-46
2022/12/13 03:15:52;;;;;;;63.85;35.08;;;;;;;;;;2106338;28;20048;-46
2022/12/13 03:16:54;;;;;;;58.65;33.28;;;;;;;;;;2106203;28;20133;-42
2022/12/13 03:17:58;;;;;;;62.58;35.45;;;;;;;;;;2106241;28;20060;-45
2022/12/13 03:19:00;;;;;;;62.80;33.10;;;;;;;;;;2106249;28;20408;-42
2022/12/13 03:20:02;;;;;;;;;;;;;;;;;;2106710;28;20557;-42
2022/12/13 03:21:05;;;;;;;54.30;24.90;;;;;;;;;;2106339;28;19974;-45
2022/12/13 03:22:06;;;;;;;52.70;25.67;;;;;;;;;;2106343;28;20055;-45
2022/12/13 03:23:09;;;;;;;62.33;36.00;;;;;;;;;;2106364;28;20052;-45
2022/12/13 03:24:10;;;;;;;60.80;34.38;;;;;;;;;;2106037;28;20036;-45
2022/12/13 03:25:11;;;;;;;67.15;35.30;;;;;;;;;;2106251;28;20060;-45
2022/12/13 03:26:16;;;;;;;55.72;27.50;;;;;;;;;;2106123;28;20044;-45
2022/12/13 03:27:17;;;;;;;60.72;34.03;;;;;;;;;;2106265;28;20048;-45
2022/12/13 03:28:18;;;;;;;51.53;25.90;;;;;;;;;;2106128;28;20083;-45
2022/12/13 03:29:19;;;;;;;62.45;34.92;;;;;;;;;;2106313;28;20101;-42
2022/12/13 03:30:24;;;;;;;58.45;33.50;;;;;;;;;;2106211;28;20049;-45
2022/12/13 03:31:25;;;;;;;62.27;34.93;;;;;;;;;;2106161;28;20047;-41
2022/12/13 03:32:26;;;;;;;61.72;33.67;;;;;;;;;;2106197;28;21034;-45
2022/12/13 03:33:28;;;;;;;57.55;29.98;;;;;;;;;;2106281;28;20098;-42
2022/12/13 03:34:29;;;;;;;60.50;34.55;;;;;;;;;;2106121;28;20051;-45
2022/12/13 03:35:45;;;;;;;55.35;28.75;;;;;;;;;;2106108;28;20408;-45
2022/12/13 03:36:46;;;;;;;59.47;33.70;;;;;;;;;;2106133;28;20084;-44
2022/12/13 03:37:48;;;;;;;56.33;29.80;;;;;;;;;;2106102;28;20428;-45
2022/12/13 03:38:51;;;;;;;58.95;33.65;;;;;;;;;;2106218;28;20044;-42
2022/12/13 03:39:52;;;;;;;55.88;30.85;;;;;;;;;;2106023;28;20354;-42
2022/12/13 03:40:56;;;;;;;61.47;35.40;;;;;;;;;;2106251;28;20044;-42
2022/12/13 03:41:57;;;;;;;53.30;29.50;;;;;;;;;;2105993;28;20044;-42
2022/12/13 03:42:59;;;;;;;55.03;27.03;;;;;;;;;;2102461;28;20044;-46
2022/12/13 03:44:02;;;;;;;58.83;33.63;;;;;;;;;;2097978;28;20110;-45
2022/12/13 03:45:04;;;;;;;54.20;32.05;;;;;;;;;;2097812;28;20405;-44
2022/12/13 03:46:05;;;;;;;51.83;27.00;;;;;;;;;;2097445;28;20059;-42
2022/12/13 03:47:06;;;;;;;57.00;33.25;;;;;;;;;;2104297;28;20052;-42
2022/12/13 07:26:13;;;;;;;72.54;40.10;;;;;;;;;;4241929;27;20328;-42
2022/12/13 07:27:14;;;;;;;;;;;;;;;;;;2113266;28;20044;-43
2022/12/13 07:28:15;;;;;;;69.68;33.92;;;;;;;;;;2112722;28;19970;-43
2022/12/13 07:29:16;;;;;;;74.13;37.72;;;;;;;;;;2110709;28;20083;-43
2022/12/13 07:30:23;;;;;;;72.22;37.60;;;;;;;;;;2104643;28;20052;-46
2022/12/13 07:31:24;;;;;;;78.65;42.25;;;;;;;;;;2104374;28;20055;-46
2022/12/13 07:32:26;;;;;;;70.20;36.13;;;;;;;;;;2104243;28;20098;-46
2022/12/13 07:33:28;;;;;;;79.05;43.05;;;;;;;;;;2104169;28;20052;-46
2022/12/13 07:34:29;;;;;;;82.38;37.28;;;;;;;;;;2104218;28;20400;-46
2022/12/13 07:35:31;;;;;;;81.28;44.20;;;;;;;;;;2104317;28;20400;-47
2022/12/13 07:36:37;;;;;;;75.47;37.30;;;;;;;;;;2104507;28;20052;-46
2022/12/13 07:37:38;;;;;;;75.38;43.50;;;;;;;;;;2104359;28;20048;-46
2022/12/13 07:38:40;;;;;;;74.78;36.50;;;;;;;;;;2104167;28;20047;-46
2022/12/13 07:39:41;;;;;;;72.82;42.55;;;;;;;;;;2104296;28;20048;-47
2022/12/13 07:40:42;;;;;;;77.25;39.83;;;;;;;;;;2104294;28;20048;-44
2022/12/13 07:41:44;;;;;;;72.07;41.53;;;;;;;;;;2104620;28;20073;-47
2022/12/13 07:42:48;;;;;;;72.60;38.47;;;;;;;;;;2104248;28;20079;-46
2022/12/13 07:43:49;;;;;;;72.22;40.50;;;;;;;;;;2104192;28;20397;-46
2022/12/13 07:44:56;;;;;;;67.05;30.75;;;;;;;;;;2103935;28;20055;-46
2022/12/13 07:45:57;;;;;;;69.97;40.90;;;;;;;;;;2104414;28;20052;-46
2022/12/13 07:46:58;;;;;;;69.32;39.85;;;;;;;;;;2104452;28;20047;-46
2022/12/13 07:48:03;;;;;;;77.45;42.05;;;;;;;;;;2104232;28;20047;-48
2022/12/13 07:49:04;;;;;;;65.05;34.78;;;;;;;;;;2104141;28;20338;-47
2022/12/13 07:50:06;;;;;;;77.95;43.17;;;;;;;;;;2103839;28;20404;-47
2022/12/13 07:51:26;;;;;;;71.47;38.45;;;;;;;;;;2104178;28;20052;-47
2022/12/13 07:52:26;;;;;;;72.90;42.20;;;;;;;;;;2104310;28;20099;-48
2022/12/13 07:53:28;;;;;;;70.87;40.57;;;;;;;;;;2104186;28;20253;-47
2022/12/13 07:54:34;;;;;;;70.22;38.08;;;;;;;;;;2104009;28;20131;-47
2022/12/13 07:55:36;;;;;;;76.47;43.80;;;;;;;;;;2104086;28;20507;-47
2022/12/13 07:56:37;;;;;;;76.43;42.08;;;;;;;;;;2104086;28;20161;-46
2022/12/13 07:57:39;;;;;;;78.15;42.95;;;;;;;;;;2104265;28;20097;-46
2022/12/13 07:58:41;;;;;;;68.07;38.08;;;;;;;;;;2104181;28;20051;-46
2022/12/13 07:59:42;;;;;;;75.05;41.45;;;;;;;;;;2103949;28;20125;-49
2022/12/13 08:00:44;;;;;;;75.85;43.45;;;;;;;;;;2104311;28;20051;-42
2022/12/13 08:01:47;;;;;;;79.00;41.95;;;;;;;;;;2104130;28;20389;-42
2022/12/13 08:02:48;;;;;;;80.38;45.83;;;;;;;;;;2104025;28;20098;-40
2022/12/13 08:03:49;;;;;;;78.53;43.22;;;;;;;;;;2104251;28;20052;-42
2022/12/13 08:04:51;;;;;;;79.28;44.58;;;;;;;;;;2104063;28;20048;-42
2022/12/13 08:05:59;;;;;;;69.28;36.67;;;;;;;;;;2104055;28;20481;-42
2022/12/13 08:07:00;;;;;;;73.55;43.65;;;;;;;;;;2104187;28;20044;-42
2022/12/13 08:08:02;;;;;;;67.97;33.85;;;;;;;;;;2104097;28;20041;-42
2022/12/13 08:09:04;;;;;;;78.15;43.38;;;;;;;;;;2104085;28;20055;-42
2022/12/13 08:10:05;;;;;;;;;;;;;;;;;;2104464;28;20051;-42
2022/12/13 08:11:08;;;;;;;67.90;37.97;;;;;;;;;;2104038;28;20021;-43
2022/12/13 08:12:09;;;;;;;72.43;43.35;;;;;;;;;;2104158;28;20382;-42
2022/12/13 08:13:11;;;;;;;75.65;42.00;;;;;;;;;;2104205;28;20060;-43
2022/12/13 08:14:12;;;;;;;67.80;33.88;;;;;;;;;;2104109;28;20416;-48
2022/12/13 08:15:13;;;;;;;70.82;39.72;;;;;;;;;;2103926;28;20385;-47
2022/12/13 08:16:17;;;;;;;67.03;39.58;;;;;;;;;;2103945;28;20497;-46
2022/12/13 08:17:29;;;;;;;77.93;38.28;;;;;;;;;;2104120;28;20054;-46
2022/12/13 08:18:30;;;;;;;75.00;40.25;;;;;;;;;;2103984;28;20048;-46
2022/12/13 08:19:32;;;;;;;65.10;37.50;;;;;;;;;;2103942;28;20378;-46
2022/12/13 08:20:33;;;;;;;64.10;38.50;;;;;;;;;;2104148;28;20051;-47
2022/12/13 08:21:35;;;;;;;66.47;39.10;;;;;;;;;;2104260;28;20040;-46
2022/12/13 08:22:57;;;;;;;61.45;30.02;;;;;;;;;;2103876;28;20052;-46
2022/12/13 08:24:04;;;;;;;69.75;40.38;;;;;;;;;;2103748;28;20044;-46
2022/12/13 08:25:05;;;;;;;70.75;40.13;;;;;;;;;;2103929;28;20105;-46
2022/12/13 08:26:06;;;;;;;63.03;31.38;;;;;;;;;;2098950;28;20055;-46
2022/12/13 08:27:08;;;;;;;75.93;40.75;;;;;;;;;;2098292;28;20475;-46
2022/12/13 08:28:08;;;;;;;70.45;40.35;;;;;;;;;;2098318;28;20082;-46
2022/12/13 08:29:12;;;;;;;75.72;41.55;;;;;;;;;;2098349;28;20055;-46
2022/12/13 08:30:23;;;;;;;71.88;33.03;;;;;;;;;;2098239;28;20048;-46
2022/12/13 08:31:24;;;;;;;68.05;39.15;;;;;;;;;;2098457;28;20106;-46
2022/12/13 08:32:26;;;;;;;65.97;39.92;;;;;;;;;;2098170;28;20433;-46
2022/12/13 08:33:27;;;;;;;61.03;36.92;;;;;;;;;;2098316;28;20449;-47
2022/12/13 08:34:28;;;;;;;63.72;38.42;;;;;;;;;;2098301;28;20044;-46
2022/12/13 08:35:29;;;;;;;59.17;35.08;;;;;;;;;;2098474;28;20055;-46
2022/12/13 08:36:35;;;;;;;64.45;36.88;;;;;;;;;;2098394;28;20211;-47
2022/12/13 08:37:36;;;;;;;70.05;39.45;;;;;;;;;;2098422;28;20055;-47
2022/12/13 08:38:37;;;;;;;61.72;31.25;;;;;;;;;;2098299;28;20505;-47
2022/12/13 08:39:38;;;;;;;73.80;41.47;;;;;;;;;;2098230;28;20098;-46
2022/12/13 08:40:40;;;;;;;74.32;41.80;;;;;;;;;;2098583;28;20390;-47
2022/12/13 08:41:41;;;;;;;72.47;41.38;;;;;;;;;;2098493;28;20067;-47
2022/12/13 08:42:42;;;;;;;69.32;34.58;;;;;;;;;;2098190;28;20430;-46
2022/12/13 08:43:43;;;;;;;77.50;43.37;;;;;;;;;;2098317;28;20094;-46
2022/12/13 08:44:46;;;;;;;77.10;42.40;;;;;;;;;;2098255;28;20053;-47
2022/12/13 08:45:49;;;;;;;67.97;38.63;;;;;;;;;;2098329;28;20037;-46
2022/12/13 08:46:50;;;;;;;62.25;32.30;;;;;;;;;;2098403;28;20052;-46
2022/12/13 08:47:51;;;;;;;58.83;34.28;;;;;;;;;;2098366;28;20045;-46
2022/12/13 08:48:52;;;;;;;60.38;34.92;;;;;;;;;;2098245;28;20048;-46
2022/12/13 08:49:54;;;;;;;58.58;34.67;;;;;;;;;;2098459;28;20131;-43
2022/12/13 08:50:58;;;;;;;64.05;36.17;;;;;;;;;;2098390;28;20431;-43
2022/12/13 08:51:59;;;;;;;58.88;33.13;;;;;;;;;;2098224;28;20040;-42
2022/12/13 08:53:00;;;;;;;57.97;34.37;;;;;;;;;;2098450;28;20044;-46
2022/12/13 08:54:01;;;;;;;65.10;36.92;;;;;;;;;;2098550;28;20059;-43
2022/12/13 08:55:13;;;;;;;62.78;34.47;;;;;;;;;;2098218;28;20064;-43
2022/12/13 08:56:14;;;;;;;64.38;37.13;;;;;;;;;;2098225;28;20056;-43
2022/12/13 08:57:15;;;;;;;62.63;35.95;;;;;;;;;;2098169;28;20049;-43
2022/12/13 08:58:16;;;;;;;59.80;35.87;;;;;;;;;;2098497;28;20088;-46
2022/12/13 08:59:17;;;;;;;57.47;34.60;;;;;;;;;;2098375;28;20102;-43
2022/12/13 09:00:20;;;;;;;58.40;35.22;;;;;;;;;;2098210;28;20052;-43
2022/12/13 09:01:21;;;;;;;60.60;35.17;;;;;;;;;;2098243;28;20055;-43
2022/12/13 09:02:22;;;;;;;57.03;34.83;;;;;;;;;;2098270;28;20049;-43
2022/12/13 09:03:23;;;;;;;62.08;35.78;;;;;;;;;;2098245;28;20378;-43
2022/12/13 09:04:25;;;;;;;57.55;33.47;;;;;;;;;;2098133;28;20040;-43
2022/12/13 09:05:33;;;;;;;52.00;26.20;;;;;;;;;;2098313;28;20041;-43
2022/12/13 09:06:36;;;;;;;54.35;33.13;;;;;;;;;;2098266;28;20040;-43
2022/12/13 09:07:39;;;;;;;56.03;33.83;;;;;;;;;;2098245;28;20053;-43
2022/12/13 09:08:41;;;;;;;52.22;32.47;;;;;;;;;;2098300;28;20044;-43
2022/12/13 09:09:42;;;;;;;52.30;26.73;;;;;;;;;;2098043;28;20504;-44
2022/12/13 09:10:44;;;;;;;54.88;31.77;;;;;;;;;;2098061;28;20507;-43
2022/12/13 09:11:45;;;;;;;;;;;;;;;;;;2098668;28;20052;-43
2022/12/13 09:12:46;;;;;;;52.65;31.92;;;;;;;;;;2098098;28;20014;-43
2022/12/13 09:13:48;;;;;;;54.90;32.65;;;;;;;;;;2098502;28;20052;-43
2022/12/13 09:14:49;;;;;;;50.63;31.05;;;;;;;;;;2097934;28;20097;-42
2022/12/13 09:15:51;;;;;;;50.92;30.73;;;;;;;;;;2098119;28;20111;-43
2022/12/13 09:16:52;;;;;;;;;;;;;;;;;;2098731;28;20136;-47
2022/12/13 09:17:54;;;;;;;45.53;25.90;;;;;;;;;;2098105;28;19959;-47
2022/12/13 09:18:55;;;;;;;48.28;29.33;;;;;;;;;;2098007;28;20102;-46
2022/12/13 09:19:56;;;;;;;50.70;30.45;;;;;;;;;;2098002;28;20048;-47
2022/12/13 09:20:59;;;;;;;;;;;;;;;;;;2098493;28;20106;-46
2022/12/13 09:22:11;;;;;;;46.90;27.67;;;;;;;;;;2097998;28;19921;-46
2022/12/13 09:23:15;;;;;;;48.70;29.58;;;;;;;;;;2098139;28;20056;-46
2022/12/13 09:24:25;;;;;;;47.58;29.50;;;;;;;;;;2091960;28;20041;-46
2022/12/13 09:25:26;;;;;;;40.90;22.00;;;;;;;;;;2089994;28;20049;-43
2022/12/13 09:26:27;;;;;;;48.40;30.17;;;;;;;;;;2089783;28;20056;-43
2022/12/13 09:27:29;;;;;;;48.55;30.48;;;;;;;;;;2089927;28;20048;-46
2022/12/13 09:28:30;;;;;;;48.25;29.02;;;;;;;;;;2089601;28;20057;-47
2022/12/13 09:29:31;;;;;;;52.15;30.20;;;;;;;;;;2089797;28;20049;-46
2022/12/13 09:30:32;;;;;;;45.75;28.42;;;;;;;;;;2089878;28;20063;-43
2022/12/13 09:31:36;;;;;;;49.35;29.80;;;;;;;;;;2089602;28;20512;-43
2022/12/13 09:32:38;;;;;;;50.45;30.45;;;;;;;;;;2090004;28;20127;-43
2022/12/13 09:33:39;;;;;;;52.53;31.20;;;;;;;;;;2089604;28;20095;-42
2022/12/13 09:34:42;;;;;;;45.70;24.25;;;;;;;;;;2089674;28;20057;-43
2022/12/13 09:35:47;;;;;;;49.15;29.88;;;;;;;;;;2089592;28;20119;-43
2022/12/13 09:36:48;;;;;;;43.92;28.17;;;;;;;;;;2089647;28;20075;-43
2022/12/13 09:37:49;;;;;;;44.25;22.80;;;;;;;;;;2088790;28;20049;-43
2022/12/13 09:38:51;;;;;;;50.55;30.42;;;;;;;;;;2089772;28;20075;-41
2022/12/13 09:39:52;;;;;;;59.42;33.55;;;;;;;;;;2089485;28;20053;-43
2022/12/13 09:40:58;;;;;;;64.70;36.70;;;;;;;;;;2089794;28;20175;-43
2022/12/13 09:42:00;;;;;;;74.32;39.22;;;;;;;;;;2089500;28;20049;-43
2022/12/13 09:43:13;;;;;;;70.45;38.67;;;;;;;;;;2089593;28;20449;-43
2022/12/13 09:44:26;;;;;;;61.92;34.45;;;;;;;;;;2089296;28;20405;-43
2022/12/13 09:45:35;;;;;;;48.75;30.65;;;;;;;;;;2089612;28;20049;-43
2022/12/13 09:46:46;;;;;;;53.63;31.58;;;;;;;;;;2089502;28;20053;-43
2022/12/13 09:47:48;;;;;;;60.42;33.05;;;;;;;;;;2089560;28;20052;-43
2022/12/13 09:48:50;;;;;;;53.55;31.75;;;;;;;;;;2089338;28;20122;-43
2022/12/13 09:49:52;;;;;;;57.25;32.47;;;;;;;;;;2089362;28;20045;-43